KACT/ACT METAR and TAF weather

Enter ICAO airport designator
Station Type Date Time Source
KACT METAR 2019/06/26 05:51 UTC NOAA

KACT 260551Z AUTO 18005KT 10SM CLR 23/19 A3002 RMK AO2 SLPNO T02280194 10322 20228 58006 $


Station Type Date Time Source
KACT Decoded METAR 2019/06/26 05:51 UTC NOAA

WACO REGIONAL AIRPORT, TX, United States (KACT) 31-36N 97-13W 151M
Jun 26, 2019 - 01:51 AM EDT / 2019.06.26 0551 UTC
Wind: from the S (180 degrees) at 6 MPH (5 KT):0
Visibility: 10 mile(s):0
Sky conditions: clear
Temperature: 73.0 F (22.8 C)
Dew Point: 66.9 F (19.4 C)
Relative Humidity: 81%
Pressure (altimeter): 30.02 in. Hg (1016 hPa)
Pressure tendency: 0.02 inches (0.6 hPa) lower than three hours ago
ob: KACT 260551Z AUTO 18005KT 10SM CLR 23/19 A3002 RMK AO2 SLPNO T02280194 10322 20228 58006
cycle: 6

Station Type Date Time Source
KACT TAF 2019/06/26 06:22 UTC NOAA

TAF KACT 260520Z 2606/2706 16012KT P6SM SCT300
FM261100 16008KT P6SM SCT020 BKN050
TEMPO 2612/2614 BKN020
FM261800 17010KT P6SM VCTS SCT040CB BKN100
FM262200 16011KT P6SM SCT100

Example: see airport list